"WATCHING THE WEATHER TO PROTECT LIFE AND PROPERTY"


Aviation
Satellite (InfraRed)


TNCA 220200Z 09015KT 9999 FEW017 29/25 Q1012 A2991 NOSIG
TNCB 220155Z AUTO 09010KT 9999 NSC 28/25 Q1013
TNCC 220200Z 11008KT 9999 FEW018 28/25 Q1014 NOSIG
TNCM 220200Z 07009KT 9999 FEW018 29/27 Q1017 A3003